Jordanville, New York
Current Conditions -  °F | °C
As of 7:24 PM on Wednesday 26 Nov 2014 (Local Time) from KRME Reporting Station
Light Snow Light Snow  
Wind Chill: 21°   Ceiling: 1900
Heat Index: 30°   Visibility: 1.5mi
Dew Point: 27°   Wind: 10mph
Humidity: 88%   Direction: 320°NW
Pressure: 30.04"   Gusts: NA
Location:  42.91°N, 74.95°W
Report Text: KRME 270024Z 32009KT 1 1/2SM -SN BR FEW013 OVC019 M01/M03 A3004 RMK AO2 P0000 T10111028
Loading
Personal Weather Stations






























Interactive Weather Map New forecast layout! Learn more

10-Day Weather Forecast

Advertisements
Track Severe Weather on mobile